Rife, Pennsylvania
Current Conditions -  °F | °C
As of 3:53 AM on Monday 24 Nov 2014 (Local Time) from KSEG Reporting Station
Light Rain Light Rain  
Wind Chill: 58°   Ceiling: 1700
Heat Index: 58°   Visibility: 10mi
Dew Point: 55°   Wind: 7mph
Humidity: 90%   Direction: NA
Pressure: 29.59"   Gusts: NA
Location:  40.5877°N, 76.8837°W
Report Text: KSEG 240853Z AUTO VRB06KT 10SM -RA BKN017 OVC023 14/13 A2959 RMK AO2 SLP019 P0007 60033 T01440128 55050 $
Loading
Personal Weather Stations






























Interactive Weather Map New forecast layout! Learn more

10-Day Weather Forecast

Advertisements
Track Severe Weather on mobile